createdAt,value
2023-02-21T00:00:14.105Z,77.6
2023-02-21T00:04:02.231Z,77.7
2023-02-21T00:05:18.590Z,77.7
2023-02-21T00:06:34.931Z,77.7
2023-02-21T00:09:07.634Z,77.9
2023-02-21T00:10:24.002Z,77.9
2023-02-21T00:11:40.342Z,77.9
2023-02-21T00:14:13.052Z,77.9
2023-02-21T00:15:29.417Z,78
2023-02-21T00:16:45.763Z,78.1
2023-02-21T00:18:02.117Z,78.2
2023-02-21T00:20:34.829Z,78.3
2023-02-21T00:21:51.184Z,78.3
2023-02-21T00:23:07.533Z,78.3
2023-02-21T00:25:40.242Z,78.2
2023-02-21T00:26:56.606Z,78.3
2023-02-21T00:28:12.964Z,78.4
2023-02-21T00:29:29.314Z,78.4
2023-02-21T00:30:45.664Z,78.4
2023-02-21T00:32:02.029Z,78.4
2023-02-21T00:33:18.374Z,78.4
2023-02-21T00:34:34.724Z,78.5
2023-02-21T00:35:50.153Z,78.3
2023-02-21T00:37:06.515Z,78.4
2023-02-21T00:38:22.862Z,78.4
2023-02-21T00:39:39.213Z,78.4
2023-02-21T00:40:55.578Z,78.4
2023-02-21T00:43:28.289Z,78.6
2023-02-21T00:46:00.983Z,78.6
2023-02-21T00:47:17.345Z,78.5
2023-02-21T00:48:33.707Z,78.6
2023-02-21T00:51:06.416Z,78.5
2023-02-21T00:52:22.761Z,78.6
2023-02-21T00:53:39.122Z,78.5
2023-02-21T00:54:55.463Z,78.6
2023-02-21T00:56:11.832Z,78.5
2023-02-21T00:57:28.185Z,78.6
2023-02-21T00:58:44.536Z,78.6
2023-02-21T01:00:00.885Z,78.8
2023-02-21T01:01:17.250Z,78.7
2023-02-21T01:02:33.607Z,78.6
2023-02-21T01:03:49.008Z,78.7
2023-02-21T01:05:05.345Z,78.6
2023-02-21T01:06:21.719Z,78.6
2023-02-21T01:07:38.053Z,78.6
2023-02-21T01:08:54.414Z,78.7
2023-02-21T01:13:59.838Z,78.6
2023-02-21T01:15:16.180Z,78.6
2023-02-21T01:16:32.538Z,78.7
2023-02-21T01:17:48.901Z,78.7
2023-02-21T01:19:05.251Z,78.7
2023-02-21T01:20:21.000Z,78.7
2023-02-21T01:22:54.315Z,78.6
2023-02-21T01:24:10.674Z,78.7
2023-02-21T01:25:27.016Z,78.7
2023-02-21T01:26:43.378Z,78.8
2023-02-21T01:29:16.083Z,78.9
2023-02-21T01:30:32.449Z,78.7
2023-02-21T01:31:48.802Z,78.8
2023-02-21T01:33:05.156Z,78.8
2023-02-21T01:36:54.205Z,78.9
2023-02-21T01:41:59.623Z,79
2023-02-21T01:43:15.978Z,78.9
2023-02-21T01:44:32.334Z,78.9
2023-02-21T01:45:48.695Z,79.1
2023-02-21T01:47:05.041Z,79
2023-02-21T01:48:21.404Z,79.1
2023-02-21T01:49:37.000Z,79.1
2023-02-21T01:50:54.229Z,78.9
2023-02-21T01:52:10.707Z,78.9
2023-02-21T01:53:27.170Z,78.9
2023-02-21T01:54:43.000Z,78.9
2023-02-21T01:56:00.104Z,78.9
2023-02-21T01:57:15.677Z,79
2023-02-21T01:58:32.156Z,79
2023-02-21T01:59:48.632Z,78.9
2023-02-21T02:01:05.099Z,78.8
2023-02-21T02:02:21.550Z,78.7
2023-02-21T02:03:38.034Z,78.8
2023-02-21T02:04:54.484Z,78.8
2023-02-21T02:06:10.970Z,78.9
2023-02-21T02:10:00.358Z,79
2023-02-21T02:11:16.831Z,78.9
2023-02-21T02:13:49.769Z,79.2
2023-02-21T02:16:21.812Z,79.1
2023-02-21T02:17:38.289Z,79.2
2023-02-21T02:18:54.765Z,79.3
2023-02-21T02:20:11.233Z,79.4
2023-02-21T02:21:26.733Z,79.4
2023-02-21T02:22:43.084Z,79.3
2023-02-21T02:23:59.446Z,79.4
2023-02-21T02:26:31.195Z,79.4
2023-02-21T02:27:47.555Z,79.4
2023-02-21T02:29:03.897Z,79.4
2023-02-21T02:30:20.261Z,79.5
2023-02-21T02:31:36.620Z,79.6
2023-02-21T02:37:58.391Z,79.6
2023-02-21T02:39:14.742Z,79.7
2023-02-21T02:40:31.084Z,79.6
2023-02-21T02:41:47.440Z,79.7
2023-02-21T02:44:20.158Z,79.7
2023-02-21T02:45:36.516Z,79.9
2023-02-21T02:46:52.874Z,79.9
2023-02-21T02:50:41.919Z,80
2023-02-21T02:53:14.639Z,80.2
2023-02-21T02:54:30.993Z,80.3
2023-02-21T02:55:47.354Z,80.3
2023-02-21T02:57:03.703Z,80.3
2023-02-21T02:58:20.056Z,80.3
2023-02-21T02:59:36.402Z,80.5
2023-02-21T03:00:52.772Z,80.5
2023-02-21T03:03:25.481Z,80.6
2023-02-21T03:07:14.544Z,80.8
2023-02-21T03:08:30.896Z,80.8
2023-02-21T03:11:03.593Z,80.9
2023-02-21T03:12:20.074Z,81
2023-02-21T03:13:36.541Z,81
2023-02-21T03:14:52.976Z,81
2023-02-21T03:16:09.000Z,81.1
2023-02-21T03:17:25.946Z,81.1
2023-02-21T03:18:41.542Z,81.2
2023-02-21T03:21:14.467Z,81.3
2023-02-21T03:22:30.000Z,81.4
2023-02-21T03:23:47.406Z,81.5
2023-02-21T03:25:03.875Z,81.5
2023-02-21T03:26:20.338Z,81.6
2023-02-21T03:27:36.800Z,81.5
2023-02-21T03:28:53.000Z,81.6
2023-02-21T03:30:09.740Z,81.6
2023-02-21T03:31:26.209Z,81.7
2023-02-21T03:32:42.676Z,81.7
2023-02-21T03:36:32.000Z,81.8
2023-02-21T03:37:48.550Z,81.7
2023-02-21T03:39:05.000Z,81.7
2023-02-21T03:40:21.483Z,81.7
2023-02-21T03:41:37.000Z,81.8
2023-02-21T03:42:53.538Z,81.8
2023-02-21T03:44:10.000Z,81.9
2023-02-21T03:45:26.000Z,81.9
2023-02-21T03:46:42.000Z,81.9
2023-02-21T03:47:59.000Z,82
2023-02-21T03:49:15.000Z,81.9
2023-02-21T03:50:32.335Z,82
2023-02-21T03:51:48.000Z,82.1
2023-02-21T03:53:05.285Z,82
2023-02-21T03:55:38.220Z,82
2023-02-21T03:58:11.157Z,82.1
2023-02-21T04:00:44.040Z,82.1
2023-02-21T04:01:59.000Z,82.1
2023-02-21T04:03:16.000Z,82.1
2023-02-21T04:05:49.000Z,82.1
2023-02-21T04:07:05.534Z,82
2023-02-21T04:08:22.000Z,82
2023-02-21T04:09:38.474Z,82.1
2023-02-21T04:10:54.940Z,82.2
2023-02-21T04:12:11.416Z,82.2
2023-02-21T04:13:27.878Z,82.1
2023-02-21T04:14:44.345Z,82.3
2023-02-21T04:16:00.809Z,82.3
2023-02-21T04:17:17.000Z,82.3
2023-02-21T04:18:33.751Z,82.3
2023-02-21T04:19:50.227Z,82.4
2023-02-21T04:21:06.000Z,82.3
2023-02-21T04:23:39.615Z,82.5
2023-02-21T04:24:56.101Z,82.6
2023-02-21T04:26:12.559Z,82.6
2023-02-21T04:27:29.023Z,82.6
2023-02-21T04:30:01.955Z,82.6
2023-02-21T04:33:51.358Z,82.9
2023-02-21T04:36:24.289Z,82.8
2023-02-21T04:37:40.773Z,83
2023-02-21T04:38:57.240Z,82.9
2023-02-21T04:40:12.824Z,82.9
2023-02-21T04:41:29.297Z,83
2023-02-21T04:42:45.756Z,83.2
2023-02-21T04:45:18.683Z,83.2
2023-02-21T04:46:35.157Z,83.2
2023-02-21T04:47:51.634Z,83.3
2023-02-21T04:49:08.086Z,83.3
2023-02-21T04:50:24.572Z,83.4
2023-02-21T04:51:41.005Z,83.3
2023-02-21T04:52:57.505Z,83.4
2023-02-21T04:54:13.962Z,83.4
2023-02-21T04:56:46.902Z,83.4
2023-02-21T04:58:02.522Z,83.4
2023-02-21T05:01:51.000Z,83.5
2023-02-21T05:05:41.328Z,83.6
2023-02-21T05:06:57.779Z,83.7
2023-02-21T05:09:30.718Z,83.7
2023-02-21T05:12:03.653Z,83.6
2023-02-21T05:13:20.118Z,83.7
2023-02-21T05:14:36.594Z,83.7
2023-02-21T05:17:08.651Z,83.6
2023-02-21T05:18:25.116Z,83.5
2023-02-21T05:19:41.591Z,83.6
2023-02-21T05:22:14.527Z,83.6
2023-02-21T05:23:30.991Z,83.7
2023-02-21T05:24:47.446Z,83.6
2023-02-21T05:26:03.912Z,83.5
2023-02-21T05:28:36.000Z,83.6
2023-02-21T05:29:53.320Z,83.6
2023-02-21T05:32:26.255Z,83.6
2023-02-21T05:33:42.719Z,83.5
2023-02-21T05:34:58.315Z,83.7
2023-02-21T05:36:14.783Z,83.7
2023-02-21T05:37:31.247Z,83.7
2023-02-21T05:38:47.710Z,83.7
2023-02-21T05:40:04.193Z,83.7
2023-02-21T05:41:20.646Z,83.6
2023-02-21T05:42:37.000Z,83.8
2023-02-21T05:43:53.547Z,83.8
2023-02-21T05:45:09.963Z,83.7
2023-02-21T05:48:59.000Z,83.9
2023-02-21T05:50:15.686Z,83.8
2023-02-21T05:52:47.704Z,84
2023-02-21T05:54:04.115Z,84
2023-02-21T05:55:20.523Z,84
2023-02-21T05:56:36.000Z,84.1
2023-02-21T05:57:53.349Z,84.2
2023-02-21T05:59:09.000Z,84.2
2023-02-21T06:00:26.000Z,84.3
2023-02-21T06:01:42.000Z,84.4
2023-02-21T06:02:59.004Z,84.4
2023-02-21T06:04:15.425Z,84.6
2023-02-21T06:05:31.825Z,84.7
2023-02-21T06:08:04.000Z,84.6
2023-02-21T06:09:21.000Z,84.6
2023-02-21T06:10:37.604Z,84.5
2023-02-21T06:13:10.433Z,84.4
2023-02-21T06:14:26.842Z,84.2
2023-02-21T06:15:43.272Z,84.2
2023-02-21T06:16:59.689Z,84.3
2023-02-21T06:18:16.102Z,84.4
2023-02-21T06:20:48.925Z,84.7
2023-02-21T06:22:05.342Z,84.6
2023-02-21T06:24:38.153Z,84.9
2023-02-21T06:25:54.578Z,85.1
2023-02-21T06:29:43.822Z,85.3
2023-02-21T06:31:00.236Z,85.3
2023-02-21T06:32:16.634Z,85.1
2023-02-21T06:33:32.000Z,85.3
2023-02-21T06:34:48.602Z,85.5
2023-02-21T06:36:05.000Z,85.2
2023-02-21T06:37:21.423Z,85.1
2023-02-21T06:38:37.834Z,85.1
2023-02-21T06:39:54.256Z,85
2023-02-21T06:42:27.083Z,84.7
2023-02-21T06:43:43.496Z,84.6
2023-02-21T06:46:16.320Z,84.6
2023-02-21T06:48:49.135Z,84.7
2023-02-21T06:50:05.000Z,84.8
2023-02-21T06:51:21.974Z,84.8
2023-02-21T06:52:37.514Z,84.9
2023-02-21T06:53:53.000Z,84.9
2023-02-21T06:55:10.323Z,85
2023-02-21T06:56:26.741Z,85.1
2023-02-21T06:57:43.155Z,85.2
2023-02-21T06:58:59.564Z,85.3
2023-02-21T07:00:15.985Z,85.5
2023-02-21T07:01:32.406Z,85.4
2023-02-21T07:04:05.228Z,85.4
2023-02-21T07:05:21.635Z,85.5
2023-02-21T07:06:38.046Z,85.7
2023-02-21T07:07:54.000Z,86
2023-02-21T07:09:10.880Z,85.9
2023-02-21T07:10:27.297Z,85.8
2023-02-21T07:11:43.702Z,85.9
2023-02-21T07:14:16.546Z,85.7
2023-02-21T07:15:32.945Z,85.3
2023-02-21T07:18:05.780Z,85.1
2023-02-21T07:19:21.272Z,85.1
2023-02-21T07:21:54.134Z,84.8
2023-02-21T07:23:10.000Z,84.7
2023-02-21T07:24:26.961Z,84.3
2023-02-21T07:26:59.794Z,84
2023-02-21T07:28:16.216Z,83.8
2023-02-21T07:30:49.030Z,83.2
2023-02-21T07:32:05.456Z,83.2
2023-02-21T07:34:38.279Z,82.9
2023-02-21T07:39:43.930Z,81.6
2023-02-21T07:40:59.463Z,80.8
2023-02-21T07:42:15.874Z,80.2
2023-02-21T07:46:05.127Z,79.5
2023-02-21T07:47:21.543Z,79.2
2023-02-21T07:49:54.354Z,79.1
2023-02-21T07:51:10.772Z,78.8
2023-02-21T07:55:00.019Z,78.4
2023-02-21T07:56:16.427Z,78.7
2023-02-21T08:00:04.785Z,79.1
2023-02-21T08:01:21.202Z,79.1
2023-02-21T08:02:37.625Z,78.9
2023-02-21T08:03:54.039Z,78.9
2023-02-21T08:05:10.454Z,78.8
2023-02-21T08:07:43.274Z,78.7
2023-02-21T08:10:16.105Z,78.4
2023-02-21T08:11:32.505Z,78.3
2023-02-21T08:12:48.916Z,78.5
2023-02-21T08:15:21.715Z,78.9
2023-02-21T08:17:53.693Z,79.1
2023-02-21T08:20:26.526Z,79.4
2023-02-21T08:21:42.931Z,79.5
2023-02-21T08:22:59.359Z,79.3
2023-02-21T08:24:15.763Z,79.4
2023-02-21T08:25:32.186Z,79.5
2023-02-21T08:28:04.997Z,79.8
2023-02-21T08:30:37.841Z,80
2023-02-21T08:33:10.649Z,80
2023-02-21T08:35:42.607Z,79.4
2023-02-21T08:36:59.021Z,78.8
2023-02-21T08:38:15.430Z,78.6
2023-02-21T08:40:48.249Z,77.8
2023-02-21T08:42:04.661Z,77.8
2023-02-21T08:43:21.074Z,77.9
2023-02-21T08:44:37.506Z,77.3
2023-02-21T08:47:10.316Z,76.8
2023-02-21T08:48:26.730Z,76.6
2023-02-21T08:49:43.000Z,76.1
2023-02-21T08:50:58.694Z,76
2023-02-21T08:52:15.108Z,76
2023-02-21T08:53:31.511Z,76.1
2023-02-21T08:57:20.743Z,76
2023-02-21T08:59:53.566Z,76
2023-02-21T09:01:09.983Z,75.8
2023-02-21T09:02:26.398Z,76
2023-02-21T09:06:15.650Z,76.3
2023-02-21T09:07:32.049Z,75.8
2023-02-21T09:08:48.469Z,76.2
2023-02-21T09:11:21.290Z,76.1
2023-02-21T09:12:37.703Z,76
2023-02-21T09:13:54.113Z,75.8
2023-02-21T09:16:26.953Z,75.5
2023-02-21T09:17:42.497Z,75.5
2023-02-21T09:18:58.910Z,75.4
2023-02-21T09:37:23.211Z,72.7
2023-02-21T09:38:37.659Z,69.8
2023-02-21T09:41:06.479Z,68.6
2023-02-21T09:42:20.000Z,68.2
2023-02-21T09:43:35.319Z,68.3
2023-02-21T09:46:04.147Z,67
2023-02-21T09:47:18.549Z,66.8
2023-02-21T09:48:32.962Z,66.5
2023-02-21T09:49:47.380Z,66.5
2023-02-21T09:51:01.803Z,66.8
2023-02-21T09:52:16.198Z,66.3
2023-02-21T09:53:29.754Z,66.1
2023-02-21T09:54:44.000Z,66.7
2023-02-21T09:55:58.598Z,67
2023-02-21T09:57:12.116Z,67.8
2023-02-21T09:58:26.528Z,67.9
2023-02-21T10:00:55.374Z,68.2
2023-02-21T10:02:09.000Z,67.7
2023-02-21T10:04:38.605Z,67.2
2023-02-21T10:05:53.000Z,67.4
2023-02-21T10:07:07.443Z,67.5
2023-02-21T10:08:21.852Z,67.5
2023-02-21T10:09:36.256Z,67.3
2023-02-21T10:10:49.000Z,67.6
2023-02-21T10:12:04.237Z,68
2023-02-21T10:13:18.639Z,68.3
2023-02-21T10:17:01.885Z,68
2023-02-21T10:18:15.409Z,68.4
2023-02-21T10:20:44.249Z,68.6
2023-02-21T10:21:58.672Z,68.9
2023-02-21T10:23:13.074Z,69.1
2023-02-21T10:24:27.482Z,69.6
2023-02-21T10:25:41.902Z,69.8
2023-02-21T10:26:56.324Z,70.1
2023-02-21T10:28:10.730Z,70.4
2023-02-21T10:29:25.146Z,70.7
2023-02-21T10:30:39.557Z,70.9
2023-02-21T10:31:53.968Z,70.8
2023-02-21T10:33:08.390Z,71.1
2023-02-21T10:36:51.627Z,71.5
2023-02-21T10:38:05.148Z,71.8
2023-02-21T10:39:19.580Z,72
2023-02-21T10:40:33.993Z,72
2023-02-21T10:41:48.387Z,72.2
2023-02-21T10:43:02.808Z,72.2
2023-02-21T10:45:31.634Z,72.4
2023-02-21T10:46:46.045Z,72.8
2023-02-21T10:48:00.453Z,72.5
2023-02-21T10:51:43.697Z,72.8
2023-02-21T10:52:58.122Z,73
2023-02-21T10:54:12.538Z,73.3
2023-02-21T10:57:54.842Z,73.6
2023-02-21T11:00:23.714Z,73.4
2023-02-21T11:01:38.128Z,73.2
2023-02-21T11:02:52.504Z,73.5
2023-02-21T11:04:06.961Z,73.5
2023-02-21T11:05:21.371Z,73.4
2023-02-21T11:06:35.794Z,73.4
2023-02-21T11:07:50.205Z,74
2023-02-21T11:09:04.604Z,73.8
2023-02-21T11:10:19.016Z,73.7
2023-02-21T11:11:33.439Z,73.6
2023-02-21T11:15:16.671Z,73
2023-02-21T11:16:31.085Z,73
2023-02-21T11:20:14.315Z,73.4
2023-02-21T11:21:28.744Z,73.2
2023-02-21T11:22:43.150Z,72.8
2023-02-21T11:23:57.520Z,72.8
2023-02-21T11:25:11.123Z,72.5
2023-02-21T11:26:25.664Z,72.3
2023-02-21T11:28:54.471Z,72.6
2023-02-21T11:30:08.904Z,72.7
2023-02-21T11:31:23.315Z,72.9
2023-02-21T11:32:37.728Z,72.8
2023-02-21T11:33:52.095Z,72.9
2023-02-21T11:35:06.547Z,73.1
2023-02-21T11:36:20.950Z,73.3
2023-02-21T11:37:35.373Z,73.4
2023-02-21T11:40:04.206Z,73
2023-02-21T11:43:47.441Z,73
2023-02-21T11:45:01.848Z,73
2023-02-21T11:46:16.266Z,72.7
2023-02-21T11:47:29.802Z,72.8
2023-02-21T11:48:44.168Z,72
2023-02-21T11:51:13.032Z,71.8
2023-02-21T11:52:27.455Z,71.7
2023-02-21T11:53:41.858Z,71.2
2023-02-21T11:54:56.291Z,71.3
2023-02-21T11:56:10.694Z,71.2
2023-02-21T11:57:25.096Z,70.8
2023-02-21T11:59:53.932Z,70.7
2023-02-21T12:01:08.343Z,70.5
2023-02-21T12:02:22.769Z,70.4
2023-02-21T12:03:37.163Z,70.3
2023-02-21T12:06:05.115Z,70
2023-02-21T12:07:19.528Z,69.8
2023-02-21T12:09:48.351Z,70
2023-02-21T12:11:02.766Z,69.9
2023-02-21T12:13:31.623Z,69.9
2023-02-21T12:14:46.013Z,69.8
2023-02-21T12:16:00.436Z,69.4
2023-02-21T12:17:14.831Z,69.6
2023-02-21T12:20:58.073Z,69.2
2023-02-21T12:23:26.915Z,68.5
2023-02-21T12:24:40.435Z,68.5
2023-02-21T12:25:54.865Z,68.8
2023-02-21T12:29:38.102Z,68.6
2023-02-21T12:30:52.504Z,68.8
2023-02-21T12:32:06.919Z,69
2023-02-21T12:34:35.757Z,69.3
2023-02-21T12:35:50.168Z,69
2023-02-21T12:37:04.577Z,69.4
2023-02-21T12:38:18.991Z,69.7
2023-02-21T12:40:47.776Z,69.9
2023-02-21T12:42:02.228Z,70.2
2023-02-21T12:43:16.636Z,70.5
2023-02-21T12:44:30.183Z,70.8
2023-02-21T12:45:44.593Z,71.5
2023-02-21T12:48:13.434Z,71.7
2023-02-21T12:49:27.832Z,71.7
2023-02-21T12:50:42.255Z,71.7
2023-02-21T12:51:56.670Z,72
2023-02-21T12:53:11.084Z,72
2023-02-21T12:54:25.485Z,72.3
2023-02-21T12:55:39.911Z,72.2
2023-02-21T12:56:54.307Z,72.3
2023-02-21T12:58:08.680Z,72.2
2023-02-21T12:59:23.135Z,72.2
2023-02-21T13:00:37.548Z,72.4
2023-02-21T13:01:51.092Z,72.2
2023-02-21T13:04:19.917Z,72.2
2023-02-21T13:05:34.332Z,72.2
2023-02-21T13:06:48.743Z,72.1
2023-02-21T13:08:03.161Z,72.4
2023-02-21T13:09:17.578Z,72.5
2023-02-21T13:10:31.987Z,72.2
2023-02-21T13:11:46.394Z,71.9
2023-02-21T13:13:00.807Z,72.2
2023-02-21T13:14:14.360Z,72.3
2023-02-21T13:15:27.893Z,72.3
2023-02-21T13:17:56.720Z,72.8
2023-02-21T13:19:11.133Z,72.7
2023-02-21T13:20:25.547Z,72.4
2023-02-21T13:22:54.381Z,72.2
2023-02-21T13:24:08.797Z,72.5
2023-02-21T13:25:23.205Z,72.6
2023-02-21T13:26:37.615Z,73
2023-02-21T13:27:52.032Z,73.2
2023-02-21T13:29:06.441Z,73.1
2023-02-21T13:30:19.996Z,73
2023-02-21T13:31:33.544Z,72.9
2023-02-21T13:34:02.364Z,73.1
2023-02-21T13:35:16.783Z,73.1
2023-02-21T13:36:31.197Z,73.2
2023-02-21T13:39:00.016Z,73
2023-02-21T13:40:14.000Z,73.4
2023-02-21T13:41:28.841Z,73.6
2023-02-21T13:42:43.253Z,73.7
2023-02-21T13:43:57.670Z,73.8
2023-02-21T13:45:12.079Z,73.9
2023-02-21T13:48:55.320Z,74
2023-02-21T13:50:09.734Z,74
2023-02-21T13:51:23.268Z,74
2023-02-21T13:52:37.688Z,74.1
2023-02-21T13:53:52.094Z,74.2
2023-02-21T13:55:06.522Z,74.1
2023-02-21T13:56:20.931Z,74.3
2023-02-21T13:57:35.344Z,74.3
2023-02-21T13:58:49.748Z,73.7
2023-02-21T14:00:04.175Z,73.7
2023-02-21T14:01:18.580Z,73.8
2023-02-21T14:03:47.411Z,73.6
2023-02-21T14:05:01.816Z,73.6
2023-02-21T14:06:16.233Z,73.4
2023-02-21T14:07:30.647Z,73.5
2023-02-21T14:08:44.092Z,73.5
2023-02-21T14:11:12.679Z,73.4
2023-02-21T14:12:26.984Z,73.4
2023-02-21T14:13:41.280Z,73.6
2023-02-21T14:14:55.588Z,73.4
2023-02-21T14:16:09.897Z,73.4
2023-02-21T14:18:38.489Z,73.4
2023-02-21T14:19:51.825Z,73.4
2023-02-21T14:22:20.437Z,73.5
2023-02-21T14:24:49.037Z,73.3
2023-02-21T14:26:03.334Z,73.4
2023-02-21T14:27:17.632Z,73.2
2023-02-21T14:28:31.930Z,73.2
2023-02-21T14:31:00.534Z,72.9
2023-02-21T14:33:29.141Z,72.9
2023-02-21T14:35:57.736Z,72.5
2023-02-21T14:37:11.091Z,72.8
2023-02-21T14:38:25.383Z,72.8
2023-02-21T14:39:39.693Z,72.9
2023-02-21T14:40:53.992Z,72.9
2023-02-21T14:42:08.278Z,73.1
2023-02-21T14:44:36.889Z,73
2023-02-21T14:45:51.196Z,73.1
2023-02-21T14:47:05.480Z,73
2023-02-21T14:49:34.081Z,73
2023-02-21T14:50:48.387Z,73
2023-02-21T14:52:02.676Z,73.2
2023-02-21T14:53:16.026Z,73.2
2023-02-21T14:54:30.333Z,73.2
2023-02-21T14:55:44.639Z,73.4
2023-02-21T14:56:58.944Z,73.4
2023-02-21T14:58:13.225Z,73.4
2023-02-21T15:00:41.833Z,73.5
2023-02-21T15:03:10.441Z,73.4
2023-02-21T15:04:24.735Z,73.5
2023-02-21T15:05:39.035Z,73.7
2023-02-21T15:06:53.346Z,73.6
2023-02-21T15:08:07.629Z,73.5
2023-02-21T15:09:21.931Z,73.4
2023-02-21T15:11:49.583Z,73.4
2023-02-21T15:13:03.883Z,73.6
2023-02-21T15:14:18.181Z,73.8
2023-02-21T15:15:32.491Z,73.8
2023-02-21T15:18:01.086Z,73.9
2023-02-21T15:19:15.375Z,74
2023-02-21T15:20:29.680Z,74.2
2023-02-21T15:21:43.988Z,74.3
2023-02-21T15:22:58.289Z,73.9
2023-02-21T15:24:12.578Z,73.8
2023-02-21T15:26:41.194Z,74.1
2023-02-21T15:31:38.396Z,74.2
2023-02-21T15:32:52.679Z,73.9
2023-02-21T15:34:06.996Z,73.7
2023-02-21T15:36:35.581Z,73.8
2023-02-21T15:37:49.885Z,74.5
2023-02-21T15:39:04.185Z,74.5
2023-02-21T15:40:18.498Z,74.3
2023-02-21T15:42:46.134Z,74
2023-02-21T15:44:00.446Z,73.9
2023-02-21T15:45:14.741Z,74
2023-02-21T15:47:43.333Z,73
2023-02-21T15:48:57.637Z,72.8
2023-02-21T15:50:11.937Z,72.3
2023-02-21T15:51:26.231Z,71.7
2023-02-21T15:52:40.533Z,71.5
2023-02-21T15:53:54.835Z,71.8
2023-02-21T15:55:09.149Z,72
2023-02-21T15:56:23.442Z,72
2023-02-21T15:58:52.051Z,72.2
2023-02-21T16:00:06.341Z,72.3
2023-02-21T16:01:19.691Z,72.4
2023-02-21T16:02:34.005Z,72.3
2023-02-21T16:05:02.587Z,71.7
2023-02-21T16:06:16.888Z,71.7
2023-02-21T16:07:31.192Z,71.9
2023-02-21T16:09:59.799Z,72.3
2023-02-21T16:11:14.091Z,72.3
2023-02-21T16:12:28.402Z,72.5
2023-02-21T16:13:42.697Z,72.7
2023-02-21T16:16:11.298Z,72.8
2023-02-21T16:17:25.592Z,72.8
2023-02-21T16:18:38.951Z,72.8
2023-02-21T16:19:53.251Z,73
2023-02-21T16:21:07.559Z,73
2023-02-21T16:22:21.841Z,73.2
2023-02-21T16:23:36.160Z,73.5
2023-02-21T16:27:19.062Z,73.6
2023-02-21T16:28:33.363Z,73.5
2023-02-21T16:29:47.648Z,73.5
2023-02-21T16:32:16.255Z,73.6
2023-02-21T16:33:30.565Z,73.6
2023-02-21T16:35:59.158Z,73.2
2023-02-21T16:37:13.469Z,72.5
2023-02-21T16:39:42.072Z,72.6
2023-02-21T16:40:56.374Z,72.8
2023-02-21T16:42:10.665Z,72.8
2023-02-21T16:44:39.268Z,73.3
2023-02-21T16:45:53.569Z,73.5
2023-02-21T16:47:07.876Z,73.5
2023-02-21T16:49:36.474Z,73.6
2023-02-21T16:50:50.780Z,73.6
2023-02-21T16:52:05.068Z,73.6
2023-02-21T16:53:19.370Z,73.5
2023-02-21T16:54:33.678Z,73.5
2023-02-21T16:55:47.966Z,73.6
2023-02-21T16:57:02.271Z,73.7
2023-02-21T16:58:15.628Z,73.6
2023-02-21T17:00:44.229Z,73.4
2023-02-21T17:01:58.535Z,73.5
2023-02-21T17:03:12.832Z,73.6
2023-02-21T17:04:27.177Z,73.7
2023-02-21T17:05:41.535Z,73.8
2023-02-21T17:06:55.883Z,74
2023-02-21T17:08:10.240Z,74.1
2023-02-21T17:09:24.593Z,74.1
2023-02-21T17:10:38.967Z,74.3
2023-02-21T17:11:53.320Z,74.2
2023-02-21T17:13:07.657Z,74.2
2023-02-21T17:14:22.029Z,74.1
2023-02-21T17:15:36.369Z,74.2
2023-02-21T17:16:50.742Z,74.2
2023-02-21T17:18:05.094Z,74.2
2023-02-21T17:19:18.517Z,74.4
2023-02-21T17:23:01.564Z,74.5
2023-02-21T17:24:14.974Z,74.6
2023-02-21T17:25:29.337Z,74.5
2023-02-21T17:26:43.690Z,74.6
2023-02-21T17:27:58.034Z,74.6
2023-02-21T17:29:12.400Z,74.4
2023-02-21T17:30:26.743Z,74.3
2023-02-21T17:31:41.105Z,73.9
2023-02-21T17:32:55.457Z,73.9
2023-02-21T17:34:09.805Z,73.8
2023-02-21T17:36:37.599Z,73.6
2023-02-21T17:37:51.938Z,73.5
2023-02-21T17:40:20.649Z,73.8
2023-02-21T17:41:35.012Z,73.8
2023-02-21T17:42:49.366Z,73.8
2023-02-21T17:45:18.072Z,73.8
2023-02-21T17:46:31.507Z,73.9
2023-02-21T17:47:45.846Z,74
2023-02-21T17:50:14.549Z,74
2023-02-21T17:51:27.966Z,74
2023-02-21T17:52:42.312Z,74.1
2023-02-21T17:53:56.672Z,74
2023-02-21T17:55:11.029Z,74
2023-02-21T17:56:25.376Z,73.9
2023-02-21T17:58:54.090Z,73.7
2023-02-21T18:01:22.798Z,73.9
2023-02-21T18:02:37.164Z,73.8
2023-02-21T18:03:51.508Z,73.7
2023-02-21T18:05:04.926Z,73.7
2023-02-21T18:06:19.287Z,73.7
2023-02-21T18:07:33.625Z,73.8
2023-02-21T18:08:47.978Z,73.7
2023-02-21T18:10:02.345Z,73.7
2023-02-21T18:11:16.698Z,73.8
2023-02-21T18:12:31.054Z,73.8
2023-02-21T18:13:45.403Z,73.7
2023-02-21T18:14:59.758Z,73.8
2023-02-21T18:17:28.477Z,73.6
2023-02-21T18:18:42.817Z,73.7
2023-02-21T18:19:57.169Z,73.8
2023-02-21T18:21:10.588Z,73.7
2023-02-21T18:23:39.295Z,73.6
2023-02-21T18:24:53.649Z,73.7
2023-02-21T18:26:08.006Z,73.7
2023-02-21T18:27:22.360Z,73.8
2023-02-21T18:29:51.064Z,74.2
2023-02-21T18:31:05.428Z,74.3
2023-02-21T18:32:19.772Z,74.3
2023-02-21T18:33:34.116Z,74.3
2023-02-21T18:36:02.831Z,74.6
2023-02-21T18:37:17.190Z,74.6
2023-02-21T18:38:31.545Z,74.7
2023-02-21T18:39:44.933Z,74.6
2023-02-21T18:40:59.292Z,74.5
2023-02-21T18:42:13.641Z,74.3
2023-02-21T18:43:28.005Z,74.3
2023-02-21T18:45:56.715Z,74.3
2023-02-21T18:47:11.074Z,74.3
2023-02-21T18:48:25.425Z,74.5
2023-02-21T18:49:39.777Z,74.3
2023-02-21T18:52:08.499Z,74.5
2023-02-21T18:54:37.204Z,74.3
2023-02-21T18:57:05.913Z,74.3
2023-02-21T18:59:34.608Z,74.2
2023-02-21T19:00:49.099Z,74.2
2023-02-21T19:03:17.798Z,74.1
2023-02-21T19:04:32.151Z,74.1
2023-02-21T19:05:46.521Z,74
2023-02-21T19:09:29.579Z,73.9
2023-02-21T19:10:43.936Z,74
2023-02-21T19:13:12.640Z,74.1
2023-02-21T19:15:41.358Z,74.3
2023-02-21T19:16:55.712Z,74.3
2023-02-21T19:18:10.054Z,74.4
2023-02-21T19:19:24.418Z,74.5
2023-02-21T19:20:38.764Z,74.5
2023-02-21T19:21:53.133Z,74.6
2023-02-21T19:23:07.485Z,74.5
2023-02-21T19:24:21.834Z,74.6
2023-02-21T19:25:36.183Z,74.5
2023-02-21T19:28:04.899Z,74.2
2023-02-21T19:31:47.963Z,74.2
2023-02-21T19:33:01.364Z,74.1
2023-02-21T19:34:15.719Z,74
2023-02-21T19:36:44.437Z,74
2023-02-21T19:37:58.796Z,74.1
2023-02-21T19:39:13.140Z,74.1
2023-02-21T19:41:41.859Z,74.1
2023-02-21T19:42:56.200Z,74.1
2023-02-21T19:44:10.564Z,74.1
2023-02-21T19:46:39.280Z,74.3
2023-02-21T19:47:53.623Z,74.3
2023-02-21T19:50:22.348Z,74.4
2023-02-21T19:51:36.688Z,74.4
2023-02-21T19:52:51.050Z,74.4
2023-02-21T19:54:05.408Z,74.4
2023-02-21T19:55:19.761Z,74.5
2023-02-21T19:56:34.120Z,74.4
2023-02-21T19:57:48.473Z,74.3
2023-02-21T19:59:02.818Z,74.3
2023-02-21T20:00:17.180Z,74.4
2023-02-21T20:01:31.526Z,74.4
2023-02-21T20:04:00.249Z,74.5
2023-02-21T20:05:14.596Z,74.5
2023-02-21T20:06:28.950Z,74.5
2023-02-21T20:07:43.313Z,74.6
2023-02-21T20:08:57.667Z,74.8
2023-02-21T20:10:12.009Z,74.9
2023-02-21T20:11:26.369Z,75
2023-02-21T20:12:40.722Z,75.1
2023-02-21T20:15:09.440Z,75.3
2023-02-21T20:16:23.793Z,75.4
2023-02-21T20:17:38.141Z,75.5
2023-02-21T20:20:07.089Z,75.6
2023-02-21T20:21:21.553Z,75.6
2023-02-21T20:25:04.953Z,75.8
2023-02-21T20:26:19.424Z,75.9
2023-02-21T20:28:48.369Z,75.8
2023-02-21T20:30:02.830Z,75.8
2023-02-21T20:31:17.293Z,75.9
2023-02-21T20:32:31.758Z,76
2023-02-21T20:34:59.812Z,76.1
2023-02-21T20:36:14.288Z,76.1
2023-02-21T20:37:28.748Z,75.9
2023-02-21T20:38:43.220Z,75.9
2023-02-21T20:41:12.171Z,75.8
2023-02-21T20:42:26.632Z,75.5
2023-02-21T20:44:55.561Z,75.5
2023-02-21T20:46:10.034Z,75.5
2023-02-21T20:47:24.501Z,75.2
2023-02-21T20:49:53.439Z,74.9
2023-02-21T20:51:07.021Z,74.9
2023-02-21T20:52:21.487Z,74.9
2023-02-21T20:54:50.432Z,74.9
2023-02-21T20:56:04.905Z,74.8
2023-02-21T20:57:19.358Z,74.8
2023-02-21T20:58:33.833Z,74.7
2023-02-21T20:59:48.300Z,74.7
2023-02-21T21:01:02.777Z,74.8
2023-02-21T21:02:17.245Z,74.7
2023-02-21T21:03:31.701Z,74.6
2023-02-21T21:04:46.184Z,74.8
2023-02-21T21:06:00.634Z,74.7
2023-02-21T21:07:14.225Z,74.9
2023-02-21T21:08:28.700Z,74.8
2023-02-21T21:09:43.164Z,74.9
2023-02-21T21:10:57.629Z,74.9
2023-02-21T21:12:12.107Z,74.9
2023-02-21T21:13:26.577Z,74.9
2023-02-21T21:14:41.034Z,75
2023-02-21T21:15:55.501Z,75.1
2023-02-21T21:19:38.042Z,75.3
2023-02-21T21:20:51.631Z,75.3
2023-02-21T21:22:06.111Z,75.5
2023-02-21T21:23:20.568Z,75.5
2023-02-21T21:24:35.041Z,75.7
2023-02-21T21:25:49.510Z,75.7
2023-02-21T21:27:03.973Z,75.7
2023-02-21T21:28:18.440Z,75.5
2023-02-21T21:29:32.915Z,75.5
2023-02-21T21:30:47.387Z,75.5
2023-02-21T21:32:01.848Z,75.7
2023-02-21T21:33:16.322Z,75.5
2023-02-21T21:34:30.779Z,75.3
2023-02-21T21:35:45.247Z,75.3
2023-02-21T21:36:58.850Z,75.2
2023-02-21T21:39:27.778Z,74.6
2023-02-21T21:40:42.247Z,74.2
2023-02-21T21:41:56.716Z,74.1
2023-02-21T21:43:11.182Z,74
2023-02-21T21:45:40.125Z,74.1
2023-02-21T21:46:54.594Z,74
2023-02-21T21:50:37.983Z,74.5
2023-02-21T21:51:52.454Z,74.5